sensor_id;sensor_type;location;lat;lon;timestamp;P1;durP1;ratioP1;P2;durP2;ratioP2
42864;SDS011;28511;42.680;23.252;2022-07-23T00:02:08;11.02;;;8.02;;
42864;SDS011;28511;42.680;23.252;2022-07-23T00:04:33;13.60;;;7.65;;
42864;SDS011;28511;42.680;23.252;2022-07-23T00:06:59;14.00;;;8.55;;
42864;SDS011;28511;42.680;23.252;2022-07-23T00:09:26;15.32;;;7.43;;
42864;SDS011;28511;42.680;23.252;2022-07-23T00:11:51;12.10;;;7.82;;
42864;SDS011;28511;42.680;23.252;2022-07-23T00:14:17;11.38;;;7.30;;
42864;SDS011;28511;42.680;23.252;2022-07-23T00:16:43;15.73;;;7.15;;
42864;SDS011;28511;42.680;23.252;2022-07-23T00:19:09;13.75;;;7.75;;
42864;SDS011;28511;42.680;23.252;2022-07-23T00:21:35;11.15;;;7.03;;
42864;SDS011;28511;42.680;23.252;2022-07-23T00:24:01;14.48;;;7.65;;
42864;SDS011;28511;42.680;23.252;2022-07-23T00:26:27;12.63;;;7.05;;
42864;SDS011;28511;42.680;23.252;2022-07-23T00:28:52;14.25;;;8.00;;
42864;SDS011;28511;42.680;23.252;2022-07-23T00:31:26;15.43;;;7.60;;
42864;SDS011;28511;42.680;23.252;2022-07-23T00:33:53;14.02;;;7.65;;
42864;SDS011;28511;42.680;23.252;2022-07-23T00:36:22;12.10;;;7.57;;
42864;SDS011;28511;42.680;23.252;2022-07-23T00:38:49;15.25;;;7.50;;
42864;SDS011;28511;42.680;23.252;2022-07-23T00:41:14;14.88;;;8.60;;
42864;SDS011;28511;42.680;23.252;2022-07-23T00:43:40;14.13;;;8.15;;
42864;SDS011;28511;42.680;23.252;2022-07-23T00:46:05;13.90;;;8.15;;
42864;SDS011;28511;42.680;23.252;2022-07-23T00:48:31;17.98;;;9.45;;
42864;SDS011;28511;42.680;23.252;2022-07-23T00:50:57;16.20;;;8.52;;
42864;SDS011;28511;42.680;23.252;2022-07-23T00:53:22;15.75;;;8.23;;
42864;SDS011;28511;42.680;23.252;2022-07-23T00:55:48;14.27;;;7.45;;
42864;SDS011;28511;42.680;23.252;2022-07-23T00:58:14;13.88;;;7.80;;
42864;SDS011;28511;42.680;23.252;2022-07-23T01:00:40;17.90;;;8.18;;
42864;SDS011;28511;42.680;23.252;2022-07-23T01:03:05;14.70;;;8.32;;
42864;SDS011;28511;42.680;23.252;2022-07-23T01:05:31;11.57;;;7.90;;
42864;SDS011;28511;42.680;23.252;2022-07-23T01:07:57;13.40;;;8.38;;
42864;SDS011;28511;42.680;23.252;2022-07-23T01:10:23;12.45;;;7.40;;
42864;SDS011;28511;42.680;23.252;2022-07-23T01:12:58;12.63;;;7.88;;
42864;SDS011;28511;42.680;23.252;2022-07-23T01:15:24;13.98;;;9.65;;
42864;SDS011;28511;42.680;23.252;2022-07-23T01:17:49;12.05;;;7.68;;
42864;SDS011;28511;42.680;23.252;2022-07-23T01:20:17;15.68;;;7.90;;
42864;SDS011;28511;42.680;23.252;2022-07-23T01:22:43;12.82;;;8.30;;
42864;SDS011;28511;42.680;23.252;2022-07-23T01:25:09;13.73;;;8.70;;
42864;SDS011;28511;42.680;23.252;2022-07-23T01:27:34;12.32;;;7.43;;
42864;SDS011;28511;42.680;23.252;2022-07-23T01:30:02;12.32;;;7.93;;
42864;SDS011;28511;42.680;23.252;2022-07-23T01:32:27;11.60;;;7.50;;
42864;SDS011;28511;42.680;23.252;2022-07-23T01:34:53;12.60;;;7.47;;
42864;SDS011;28511;42.680;23.252;2022-07-23T01:37:18;14.07;;;7.28;;
42864;SDS011;28511;42.680;23.252;2022-07-23T01:39:44;14.80;;;7.38;;
42864;SDS011;28511;42.680;23.252;2022-07-23T01:42:10;13.98;;;8.57;;
42864;SDS011;28511;42.680;23.252;2022-07-23T01:44:35;15.25;;;8.15;;
42864;SDS011;28511;42.680;23.252;2022-07-23T01:47:01;15.77;;;8.20;;
42864;SDS011;28511;42.680;23.252;2022-07-23T01:49:26;12.00;;;7.03;;
42864;SDS011;28511;42.680;23.252;2022-07-23T01:51:52;11.88;;;7.97;;
42864;SDS011;28511;42.680;23.252;2022-07-23T01:54:27;15.30;;;7.65;;
42864;SDS011;28511;42.680;23.252;2022-07-23T01:56:52;12.70;;;7.60;;
42864;SDS011;28511;42.680;23.252;2022-07-23T01:59:18;13.35;;;7.30;;
42864;SDS011;28511;42.680;23.252;2022-07-23T02:01:43;13.25;;;7.63;;
42864;SDS011;28511;42.680;23.252;2022-07-23T02:04:09;13.00;;;7.55;;
42864;SDS011;28511;42.680;23.252;2022-07-23T02:06:35;13.40;;;8.15;;
42864;SDS011;28511;42.680;23.252;2022-07-23T02:09:01;15.70;;;7.57;;
42864;SDS011;28511;42.680;23.252;2022-07-23T02:11:27;18.48;;;7.30;;
42864;SDS011;28511;42.680;23.252;2022-07-23T02:13:52;13.23;;;8.38;;
42864;SDS011;28511;42.680;23.252;2022-07-23T02:16:18;12.77;;;8.13;;
42864;SDS011;28511;42.680;23.252;2022-07-23T02:18:44;13.63;;;7.47;;
42864;SDS011;28511;42.680;23.252;2022-07-23T02:21:11;13.93;;;7.47;;
42864;SDS011;28511;42.680;23.252;2022-07-23T02:23:37;14.48;;;7.28;;
42864;SDS011;28511;42.680;23.252;2022-07-23T02:26:03;12.63;;;7.90;;
42864;SDS011;28511;42.680;23.252;2022-07-23T02:28:29;16.02;;;7.25;;
42864;SDS011;28511;42.680;23.252;2022-07-23T02:30:54;12.35;;;6.85;;
42864;SDS011;28511;42.680;23.252;2022-07-23T02:33:20;12.80;;;6.80;;
42864;SDS011;28511;42.680;23.252;2022-07-23T02:35:45;14.23;;;7.53;;
42864;SDS011;28511;42.680;23.252;2022-07-23T02:38:11;12.00;;;7.10;;
42864;SDS011;28511;42.680;23.252;2022-07-23T02:40:38;13.15;;;7.85;;
42864;SDS011;28511;42.680;23.252;2022-07-23T02:43:04;12.80;;;7.63;;
42864;SDS011;28511;42.680;23.252;2022-07-23T02:45:32;14.10;;;8.65;;
42864;SDS011;28511;42.680;23.252;2022-07-23T02:47:57;15.50;;;8.52;;
42864;SDS011;28511;42.680;23.252;2022-07-23T02:50:22;14.77;;;8.77;;
42864;SDS011;28511;42.680;23.252;2022-07-23T02:52:48;13.50;;;7.68;;
42864;SDS011;28511;42.680;23.252;2022-07-23T02:55:16;15.02;;;8.98;;
42864;SDS011;28511;42.680;23.252;2022-07-23T02:57:41;16.73;;;9.38;;
42864;SDS011;28511;42.680;23.252;2022-07-23T03:00:07;11.70;;;7.75;;
42864;SDS011;28511;42.680;23.252;2022-07-23T03:02:41;13.15;;;9.02;;
42864;SDS011;28511;42.680;23.252;2022-07-23T03:05:06;16.05;;;9.15;;
42864;SDS011;28511;42.680;23.252;2022-07-23T03:07:32;16.77;;;10.35;;
42864;SDS011;28511;42.680;23.252;2022-07-23T03:12:26;17.08;;;8.10;;
42864;SDS011;28511;42.680;23.252;2022-07-23T03:14:53;21.13;;;8.35;;
42864;SDS011;28511;42.680;23.252;2022-07-23T03:17:20;14.43;;;8.80;;
42864;SDS011;28511;42.680;23.252;2022-07-23T03:19:46;15.30;;;7.75;;
42864;SDS011;28511;42.680;23.252;2022-07-23T03:22:18;13.98;;;7.90;;
42864;SDS011;28511;42.680;23.252;2022-07-23T03:30:14;21.35;;;9.50;;
42864;SDS011;28511;42.680;23.252;2022-07-23T03:35:15;17.02;;;9.63;;
42864;SDS011;28511;42.680;23.252;2022-07-23T03:37:59;13.00;;;9.32;;
42864;SDS011;28511;42.680;23.252;2022-07-23T03:40:27;20.00;;;11.27;;
42864;SDS011;28511;42.680;23.252;2022-07-23T03:42:53;16.05;;;9.20;;
42864;SDS011;28511;42.680;23.252;2022-07-23T03:45:24;19.33;;;9.57;;
42864;SDS011;28511;42.680;23.252;2022-07-23T03:47:50;19.75;;;10.27;;
42864;SDS011;28511;42.680;23.252;2022-07-23T03:50:15;15.25;;;9.63;;
42864;SDS011;28511;42.680;23.252;2022-07-23T03:52:42;15.33;;;8.80;;
42864;SDS011;28511;42.680;23.252;2022-07-23T03:55:07;16.98;;;9.80;;
42864;SDS011;28511;42.680;23.252;2022-07-23T03:57:33;15.00;;;8.48;;
42864;SDS011;28511;42.680;23.252;2022-07-23T04:00:01;18.98;;;9.70;;
42864;SDS011;28511;42.680;23.252;2022-07-23T04:02:26;17.15;;;9.88;;
42864;SDS011;28511;42.680;23.252;2022-07-23T04:04:54;16.00;;;9.80;;
42864;SDS011;28511;42.680;23.252;2022-07-23T04:07:21;16.48;;;8.88;;
42864;SDS011;28511;42.680;23.252;2022-07-23T04:09:47;18.05;;;10.23;;
42864;SDS011;28511;42.680;23.252;2022-07-23T04:12:13;18.38;;;8.70;;
42864;SDS011;28511;42.680;23.252;2022-07-23T04:14:38;17.58;;;8.52;;
42864;SDS011;28511;42.680;23.252;2022-07-23T04:17:04;19.10;;;10.20;;
42864;SDS011;28511;42.680;23.252;2022-07-23T04:19:29;17.08;;;8.80;;
42864;SDS011;28511;42.680;23.252;2022-07-23T04:21:55;16.30;;;9.07;;
42864;SDS011;28511;42.680;23.252;2022-07-23T04:24:21;14.75;;;8.57;;
42864;SDS011;28511;42.680;23.252;2022-07-23T04:26:46;13.35;;;7.72;;
42864;SDS011;28511;42.680;23.252;2022-07-23T04:29:11;15.35;;;8.48;;
42864;SDS011;28511;42.680;23.252;2022-07-23T04:31:37;17.65;;;8.52;;
42864;SDS011;28511;42.680;23.252;2022-07-23T04:34:02;15.38;;;8.32;;
42864;SDS011;28511;42.680;23.252;2022-07-23T04:36:28;13.15;;;8.43;;
42864;SDS011;28511;42.680;23.252;2022-07-23T04:38:53;13.48;;;8.00;;
42864;SDS011;28511;42.680;23.252;2022-07-23T04:41:19;14.70;;;9.68;;
42864;SDS011;28511;42.680;23.252;2022-07-23T04:43:44;12.70;;;8.40;;
42864;SDS011;28511;42.680;23.252;2022-07-23T04:46:09;14.95;;;8.65;;
42864;SDS011;28511;42.680;23.252;2022-07-23T04:48:36;15.95;;;8.55;;
42864;SDS011;28511;42.680;23.252;2022-07-23T04:51:01;15.20;;;8.73;;
42864;SDS011;28511;42.680;23.252;2022-07-23T04:53:28;11.95;;;7.70;;
42864;SDS011;28511;42.680;23.252;2022-07-23T04:55:54;14.57;;;8.18;;
42864;SDS011;28511;42.680;23.252;2022-07-23T04:58:20;14.63;;;7.85;;
42864;SDS011;28511;42.680;23.252;2022-07-23T05:00:47;14.38;;;8.50;;
42864;SDS011;28511;42.680;23.252;2022-07-23T05:03:15;14.32;;;7.85;;
42864;SDS011;28511;42.680;23.252;2022-07-23T05:05:40;18.80;;;7.45;;
42864;SDS011;28511;42.680;23.252;2022-07-23T05:10:41;11.60;;;7.47;;
42864;SDS011;28511;42.680;23.252;2022-07-23T05:13:08;11.15;;;7.97;;
42864;SDS011;28511;42.680;23.252;2022-07-23T05:15:33;14.15;;;7.35;;
42864;SDS011;28511;42.680;23.252;2022-07-23T05:17:59;13.18;;;8.00;;
42864;SDS011;28511;42.680;23.252;2022-07-23T05:20:25;12.27;;;7.75;;
42864;SDS011;28511;42.680;23.252;2022-07-23T05:22:51;11.90;;;7.50;;
42864;SDS011;28511;42.680;23.252;2022-07-23T05:25:16;13.13;;;7.82;;
42864;SDS011;28511;42.680;23.252;2022-07-23T05:27:42;17.02;;;7.68;;
42864;SDS011;28511;42.680;23.252;2022-07-23T05:32:39;14.10;;;8.05;;
42864;SDS011;28511;42.680;23.252;2022-07-23T05:35:05;15.30;;;7.57;;
42864;SDS011;28511;42.680;23.252;2022-07-23T05:37:31;12.13;;;7.57;;
42864;SDS011;28511;42.680;23.252;2022-07-23T05:39:59;14.38;;;8.90;;
42864;SDS011;28511;42.680;23.252;2022-07-23T05:42:26;17.55;;;8.23;;
42864;SDS011;28511;42.680;23.252;2022-07-23T05:44:51;14.18;;;7.80;;
42864;SDS011;28511;42.680;23.252;2022-07-23T05:47:17;16.60;;;8.52;;
42864;SDS011;28511;42.680;23.252;2022-07-23T05:49:43;13.77;;;7.97;;
42864;SDS011;28511;42.680;23.252;2022-07-23T05:52:08;14.30;;;8.43;;
42864;SDS011;28511;42.680;23.252;2022-07-23T05:54:34;13.73;;;8.10;;
42864;SDS011;28511;42.680;23.252;2022-07-23T05:57:00;13.45;;;8.68;;
42864;SDS011;28511;42.680;23.252;2022-07-23T05:59:26;20.02;;;10.13;;
42864;SDS011;28511;42.680;23.252;2022-07-23T06:01:52;18.30;;;9.32;;
42864;SDS011;28511;42.680;23.252;2022-07-23T06:04:17;12.52;;;8.43;;
42864;SDS011;28511;42.680;23.252;2022-07-23T06:06:43;15.98;;;8.15;;
42864;SDS011;28511;42.680;23.252;2022-07-23T06:09:08;16.35;;;8.00;;
42864;SDS011;28511;42.680;23.252;2022-07-23T06:11:35;13.73;;;8.60;;
42864;SDS011;28511;42.680;23.252;2022-07-23T06:14:01;18.40;;;9.15;;
42864;SDS011;28511;42.680;23.252;2022-07-23T06:16:27;15.20;;;8.35;;
42864;SDS011;28511;42.680;23.252;2022-07-23T06:18:52;14.60;;;8.00;;
42864;SDS011;28511;42.680;23.252;2022-07-23T06:21:17;14.83;;;8.20;;
42864;SDS011;28511;42.680;23.252;2022-07-23T06:23:43;16.35;;;7.78;;
42864;SDS011;28511;42.680;23.252;2022-07-23T06:26:08;14.53;;;8.00;;
42864;SDS011;28511;42.680;23.252;2022-07-23T06:28:33;25.30;;;9.07;;
42864;SDS011;28511;42.680;23.252;2022-07-23T06:30:58;13.52;;;7.88;;
42864;SDS011;28511;42.680;23.252;2022-07-23T06:33:24;12.80;;;7.40;;
42864;SDS011;28511;42.680;23.252;2022-07-23T06:35:49;14.27;;;7.60;;
42864;SDS011;28511;42.680;23.252;2022-07-23T06:38:15;14.73;;;7.90;;
42864;SDS011;28511;42.680;23.252;2022-07-23T06:40:42;15.73;;;8.38;;
42864;SDS011;28511;42.680;23.252;2022-07-23T06:43:09;16.83;;;8.07;;
42864;SDS011;28511;42.680;23.252;2022-07-23T06:45:34;14.13;;;8.55;;
42864;SDS011;28511;42.680;23.252;2022-07-23T06:48:01;12.35;;;7.75;;
42864;SDS011;28511;42.680;23.252;2022-07-23T06:50:27;20.63;;;8.13;;
42864;SDS011;28511;42.680;23.252;2022-07-23T06:52:53;21.50;;;8.55;;
42864;SDS011;28511;42.680;23.252;2022-07-23T06:55:18;10.48;;;7.38;;
42864;SDS011;28511;42.680;23.252;2022-07-23T06:57:43;24.27;;;10.17;;
42864;SDS011;28511;42.680;23.252;2022-07-23T07:00:09;17.43;;;7.97;;
42864;SDS011;28511;42.680;23.252;2022-07-23T07:02:35;12.38;;;7.35;;
42864;SDS011;28511;42.680;23.252;2022-07-23T07:05:00;13.07;;;8.93;;
42864;SDS011;28511;42.680;23.252;2022-07-23T07:07:26;15.68;;;8.32;;
42864;SDS011;28511;42.680;23.252;2022-07-23T07:09:51;14.73;;;7.40;;
42864;SDS011;28511;42.680;23.252;2022-07-23T07:12:16;13.13;;;7.63;;
42864;SDS011;28511;42.680;23.252;2022-07-23T07:14:42;14.30;;;7.70;;
42864;SDS011;28511;42.680;23.252;2022-07-23T07:17:07;12.27;;;7.63;;
42864;SDS011;28511;42.680;23.252;2022-07-23T07:19:33;12.73;;;7.25;;
42864;SDS011;28511;42.680;23.252;2022-07-23T07:21:59;10.50;;;7.90;;
42864;SDS011;28511;42.680;23.252;2022-07-23T07:24:24;12.48;;;7.47;;
42864;SDS011;28511;42.680;23.252;2022-07-23T07:26:50;21.55;;;9.55;;
42864;SDS011;28511;42.680;23.252;2022-07-23T07:29:15;11.30;;;7.60;;
42864;SDS011;28511;42.680;23.252;2022-07-23T07:31:41;15.20;;;7.65;;
42864;SDS011;28511;42.680;23.252;2022-07-23T07:34:07;12.68;;;7.15;;
42864;SDS011;28511;42.680;23.252;2022-07-23T07:36:32;16.00;;;8.23;;
42864;SDS011;28511;42.680;23.252;2022-07-23T07:38:58;13.23;;;8.07;;
42864;SDS011;28511;42.680;23.252;2022-07-23T07:41:24;12.77;;;7.30;;
42864;SDS011;28511;42.680;23.252;2022-07-23T07:43:51;12.23;;;7.00;;
42864;SDS011;28511;42.680;23.252;2022-07-23T07:46:17;21.27;;;7.40;;
42864;SDS011;28511;42.680;23.252;2022-07-23T07:48:43;11.45;;;6.90;;
42864;SDS011;28511;42.680;23.252;2022-07-23T07:51:08;12.85;;;7.78;;
42864;SDS011;28511;42.680;23.252;2022-07-23T07:53:34;15.55;;;7.40;;
42864;SDS011;28511;42.680;23.252;2022-07-23T07:55:59;12.18;;;7.63;;
42864;SDS011;28511;42.680;23.252;2022-07-23T07:58:25;13.10;;;7.75;;
42864;SDS011;28511;42.680;23.252;2022-07-23T08:00:50;13.90;;;7.53;;
42864;SDS011;28511;42.680;23.252;2022-07-23T08:03:16;13.93;;;7.90;;
42864;SDS011;28511;42.680;23.252;2022-07-23T08:05:43;10.15;;;7.15;;
42864;SDS011;28511;42.680;23.252;2022-07-23T08:08:10;14.50;;;7.45;;
42864;SDS011;28511;42.680;23.252;2022-07-23T08:10:40;15.20;;;7.78;;
42864;SDS011;28511;42.680;23.252;2022-07-23T08:13:05;9.88;;;7.68;;
42864;SDS011;28511;42.680;23.252;2022-07-23T08:15:31;12.43;;;7.78;;
42864;SDS011;28511;42.680;23.252;2022-07-23T08:17:57;15.25;;;7.88;;
42864;SDS011;28511;42.680;23.252;2022-07-23T08:20:23;11.70;;;8.38;;
42864;SDS011;28511;42.680;23.252;2022-07-23T08:22:53;16.45;;;8.55;;
42864;SDS011;28511;42.680;23.252;2022-07-23T08:25:23;13.35;;;8.63;;
42864;SDS011;28511;42.680;23.252;2022-07-23T08:27:49;14.60;;;7.80;;
42864;SDS011;28511;42.680;23.252;2022-07-23T08:30:14;15.15;;;8.15;;
42864;SDS011;28511;42.680;23.252;2022-07-23T08:32:57;13.55;;;8.35;;
42864;SDS011;28511;42.680;23.252;2022-07-23T08:35:27;14.93;;;9.00;;
42864;SDS011;28511;42.680;23.252;2022-07-23T08:37:53;12.75;;;8.15;;
42864;SDS011;28511;42.680;23.252;2022-07-23T08:40:19;13.73;;;8.25;;
42864;SDS011;28511;42.680;23.252;2022-07-23T08:42:46;19.27;;;9.17;;
42864;SDS011;28511;42.680;23.252;2022-07-23T08:45:12;13.20;;;8.30;;
42864;SDS011;28511;42.680;23.252;2022-07-23T08:47:38;13.23;;;8.18;;
42864;SDS011;28511;42.680;23.252;2022-07-23T08:50:04;14.10;;;8.13;;
42864;SDS011;28511;42.680;23.252;2022-07-23T08:52:30;15.52;;;8.38;;
42864;SDS011;28511;42.680;23.252;2022-07-23T08:54:56;13.30;;;8.32;;
42864;SDS011;28511;42.680;23.252;2022-07-23T08:57:22;11.70;;;8.48;;
42864;SDS011;28511;42.680;23.252;2022-07-23T08:59:47;12.65;;;8.45;;
42864;SDS011;28511;42.680;23.252;2022-07-23T09:02:13;15.30;;;10.52;;
42864;SDS011;28511;42.680;23.252;2022-07-23T09:04:41;17.03;;;9.13;;
42864;SDS011;28511;42.680;23.252;2022-07-23T09:07:06;14.32;;;9.45;;
42864;SDS011;28511;42.680;23.252;2022-07-23T09:09:32;16.52;;;8.95;;
42864;SDS011;28511;42.680;23.252;2022-07-23T09:12:08;19.08;;;8.27;;
42864;SDS011;28511;42.680;23.252;2022-07-23T09:14:41;20.60;;;8.85;;
42864;SDS011;28511;42.680;23.252;2022-07-23T09:17:10;11.45;;;8.05;;
42864;SDS011;28511;42.680;23.252;2022-07-23T09:19:36;15.05;;;8.70;;
42864;SDS011;28511;42.680;23.252;2022-07-23T09:27:26;11.00;;;7.65;;
42864;SDS011;28511;42.680;23.252;2022-07-23T09:30:09;14.32;;;7.78;;
42864;SDS011;28511;42.680;23.252;2022-07-23T09:32:36;12.32;;;7.53;;
42864;SDS011;28511;42.680;23.252;2022-07-23T09:35:02;11.85;;;8.45;;
42864;SDS011;28511;42.680;23.252;2022-07-23T09:37:27;15.02;;;7.97;;
42864;SDS011;28511;42.680;23.252;2022-07-23T09:39:53;10.48;;;6.93;;
42864;SDS011;28511;42.680;23.252;2022-07-23T09:42:28;14.40;;;6.88;;
42864;SDS011;28511;42.680;23.252;2022-07-23T09:44:54;15.50;;;7.03;;
42864;SDS011;28511;42.680;23.252;2022-07-23T09:47:21;15.20;;;7.22;;
42864;SDS011;28511;42.680;23.252;2022-07-23T09:50:08;15.95;;;8.23;;
42864;SDS011;28511;42.680;23.252;2022-07-23T09:52:36;12.30;;;6.68;;
42864;SDS011;28511;42.680;23.252;2022-07-23T09:55:04;12.98;;;7.50;;
42864;SDS011;28511;42.680;23.252;2022-07-23T09:57:29;14.80;;;7.33;;
42864;SDS011;28511;42.680;23.252;2022-07-23T09:59:57;14.48;;;6.53;;
42864;SDS011;28511;42.680;23.252;2022-07-23T10:02:24;16.67;;;6.07;;
42864;SDS011;28511;42.680;23.252;2022-07-23T10:04:51;11.70;;;6.25;;
42864;SDS011;28511;42.680;23.252;2022-07-23T10:07:18;15.05;;;6.85;;
42864;SDS011;28511;42.680;23.252;2022-07-23T10:09:44;12.45;;;7.35;;
42864;SDS011;28511;42.680;23.252;2022-07-23T10:12:13;19.70;;;6.88;;
42864;SDS011;28511;42.680;23.252;2022-07-23T10:14:48;14.95;;;6.75;;
42864;SDS011;28511;42.680;23.252;2022-07-23T10:17:14;12.32;;;6.20;;
42864;SDS011;28511;42.680;23.252;2022-07-23T10:19:39;16.05;;;6.45;;
42864;SDS011;28511;42.680;23.252;2022-07-23T10:22:47;16.05;;;6.40;;
42864;SDS011;28511;42.680;23.252;2022-07-23T10:27:37;12.20;;;6.20;;
42864;SDS011;28511;42.680;23.252;2022-07-23T10:30:05;9.68;;;5.88;;
42864;SDS011;28511;42.680;23.252;2022-07-23T10:38:02;13.38;;;6.32;;
42864;SDS011;28511;42.680;23.252;2022-07-23T10:40:31;10.40;;;5.78;;
42864;SDS011;28511;42.680;23.252;2022-07-23T10:42:58;12.32;;;6.18;;
42864;SDS011;28511;42.680;23.252;2022-07-23T10:45:28;12.95;;;6.03;;
42864;SDS011;28511;42.680;23.252;2022-07-23T10:47:53;12.55;;;6.28;;
42864;SDS011;28511;42.680;23.252;2022-07-23T10:58:01;10.75;;;5.30;;
42864;SDS011;28511;42.680;23.252;2022-07-23T11:00:28;10.00;;;5.35;;
42864;SDS011;28511;42.680;23.252;2022-07-23T11:02:55;14.18;;;4.75;;
42864;SDS011;28511;42.680;23.252;2022-07-23T11:05:22;16.30;;;6.03;;
42864;SDS011;28511;42.680;23.252;2022-07-23T11:10:34;21.20;;;5.97;;
42864;SDS011;28511;42.680;23.252;2022-07-23T11:31:52;10.88;;;5.53;;
42864;SDS011;28511;42.680;23.252;2022-07-23T11:34:51;13.65;;;5.25;;
42864;SDS011;28511;42.680;23.252;2022-07-23T11:37:32;18.65;;;5.35;;
42864;SDS011;28511;42.680;23.252;2022-07-23T11:39:59;15.05;;;6.07;;
42864;SDS011;28511;42.680;23.252;2022-07-23T11:42:25;14.00;;;5.07;;
42864;SDS011;28511;42.680;23.252;2022-07-23T11:44:51;15.07;;;6.15;;
42864;SDS011;28511;42.680;23.252;2022-07-23T11:47:21;15.95;;;6.25;;
42864;SDS011;28511;42.680;23.252;2022-07-23T11:49:57;17.83;;;5.32;;
42864;SDS011;28511;42.680;23.252;2022-07-23T11:52:24;20.83;;;5.95;;
42864;SDS011;28511;42.680;23.252;2022-07-23T11:54:54;17.27;;;5.05;;
42864;SDS011;28511;42.680;23.252;2022-07-23T11:57:20;13.75;;;5.63;;
42864;SDS011;28511;42.680;23.252;2022-07-23T11:59:50;16.90;;;5.22;;
42864;SDS011;28511;42.680;23.252;2022-07-23T12:02:16;16.30;;;5.57;;
42864;SDS011;28511;42.680;23.252;2022-07-23T12:04:47;12.13;;;5.63;;
42864;SDS011;28511;42.680;23.252;2022-07-23T12:07:23;17.58;;;5.20;;
42864;SDS011;28511;42.680;23.252;2022-07-23T12:09:49;15.60;;;5.68;;
42864;SDS011;28511;42.680;23.252;2022-07-23T12:12:15;20.75;;;5.82;;
42864;SDS011;28511;42.680;23.252;2022-07-23T12:17:15;17.60;;;5.40;;
42864;SDS011;28511;42.680;23.252;2022-07-23T12:19:40;16.58;;;5.70;;
42864;SDS011;28511;42.680;23.252;2022-07-23T12:22:06;14.82;;;6.18;;
42864;SDS011;28511;42.680;23.252;2022-07-23T12:24:51;17.23;;;5.63;;
42864;SDS011;28511;42.680;23.252;2022-07-23T12:27:19;16.58;;;6.55;;
42864;SDS011;28511;42.680;23.252;2022-07-23T12:29:47;12.35;;;5.53;;
42864;SDS011;28511;42.680;23.252;2022-07-23T12:32:24;15.23;;;6.15;;
42864;SDS011;28511;42.680;23.252;2022-07-23T12:34:51;23.33;;;7.63;;
42864;SDS011;28511;42.680;23.252;2022-07-23T12:37:30;14.57;;;5.40;;
42864;SDS011;28511;42.680;23.252;2022-07-23T12:42:43;14.98;;;6.15;;
42864;SDS011;28511;42.680;23.252;2022-07-23T12:45:11;16.75;;;5.45;;
42864;SDS011;28511;42.680;23.252;2022-07-23T12:50:37;14.13;;;5.15;;
42864;SDS011;28511;42.680;23.252;2022-07-23T12:53:06;16.75;;;6.18;;
42864;SDS011;28511;42.680;23.252;2022-07-23T12:55:32;16.25;;;5.43;;
42864;SDS011;28511;42.680;23.252;2022-07-23T12:58:08;16.63;;;6.25;;
42864;SDS011;28511;42.680;23.252;2022-07-23T13:05:48;11.55;;;5.57;;
42864;SDS011;28511;42.680;23.252;2022-07-23T13:08:13;14.73;;;5.40;;
42864;SDS011;28511;42.680;23.252;2022-07-23T13:10:38;13.97;;;6.43;;
42864;SDS011;28511;42.680;23.252;2022-07-23T13:13:08;14.80;;;5.57;;
42864;SDS011;28511;42.680;23.252;2022-07-23T13:15:34;16.50;;;5.47;;
42864;SDS011;28511;42.680;23.252;2022-07-23T13:18:00;20.67;;;5.93;;
42864;SDS011;28511;42.680;23.252;2022-07-23T13:20:25;13.40;;;5.67;;
42864;SDS011;28511;42.680;23.252;2022-07-23T13:22:50;12.37;;;5.87;;
42864;SDS011;28511;42.680;23.252;2022-07-23T13:25:15;14.37;;;5.67;;
42864;SDS011;28511;42.680;23.252;2022-07-23T13:27:41;11.40;;;5.17;;
42864;SDS011;28511;42.680;23.252;2022-07-23T13:30:08;15.63;;;6.03;;
42864;SDS011;28511;42.680;23.252;2022-07-23T13:32:35;8.45;;;4.68;;
42864;SDS011;28511;42.680;23.252;2022-07-23T13:35:01;15.70;;;5.70;;
42864;SDS011;28511;42.680;23.252;2022-07-23T13:37:26;17.27;;;6.00;;
42864;SDS011;28511;42.680;23.252;2022-07-23T13:39:52;13.57;;;5.28;;
42864;SDS011;28511;42.680;23.252;2022-07-23T13:42:18;14.90;;;6.00;;
42864;SDS011;28511;42.680;23.252;2022-07-23T13:44:43;16.17;;;5.43;;
42864;SDS011;28511;42.680;23.252;2022-07-23T13:47:08;13.47;;;6.10;;
42864;SDS011;28511;42.680;23.252;2022-07-23T13:49:34;13.83;;;5.10;;
42864;SDS011;28511;42.680;23.252;2022-07-23T13:54:28;18.88;;;5.45;;
42864;SDS011;28511;42.680;23.252;2022-07-23T13:56:53;17.07;;;5.00;;
42864;SDS011;28511;42.680;23.252;2022-07-23T13:59:18;11.00;;;4.70;;
42864;SDS011;28511;42.680;23.252;2022-07-23T14:01:44;13.27;;;5.17;;
42864;SDS011;28511;42.680;23.252;2022-07-23T14:04:10;10.30;;;4.90;;
42864;SDS011;28511;42.680;23.252;2022-07-23T14:06:35;14.88;;;4.90;;
42864;SDS011;28511;42.680;23.252;2022-07-23T14:09:00;12.82;;;6.25;;
42864;SDS011;28511;42.680;23.252;2022-07-23T14:11:26;14.60;;;4.65;;
42864;SDS011;28511;42.680;23.252;2022-07-23T14:13:55;12.18;;;5.20;;
42864;SDS011;28511;42.680;23.252;2022-07-23T14:16:20;21.17;;;7.35;;
42864;SDS011;28511;42.680;23.252;2022-07-23T14:18:46;13.75;;;4.95;;
42864;SDS011;28511;42.680;23.252;2022-07-23T14:21:11;14.32;;;5.00;;
42864;SDS011;28511;42.680;23.252;2022-07-23T14:23:37;10.35;;;5.03;;
42864;SDS011;28511;42.680;23.252;2022-07-23T14:26:02;11.70;;;5.80;;
42864;SDS011;28511;42.680;23.252;2022-07-23T14:28:28;12.13;;;4.60;;
42864;SDS011;28511;42.680;23.252;2022-07-23T14:30:53;12.70;;;4.93;;
42864;SDS011;28511;42.680;23.252;2022-07-23T14:33:18;13.60;;;4.90;;
42864;SDS011;28511;42.680;23.252;2022-07-23T14:35:46;17.83;;;5.50;;
42864;SDS011;28511;42.680;23.252;2022-07-23T14:38:11;9.00;;;4.70;;
42864;SDS011;28511;42.680;23.252;2022-07-23T14:40:37;19.85;;;4.85;;
42864;SDS011;28511;42.680;23.252;2022-07-23T14:43:02;19.33;;;5.15;;
42864;SDS011;28511;42.680;23.252;2022-07-23T14:45:28;14.85;;;4.80;;
42864;SDS011;28511;42.680;23.252;2022-07-23T14:47:55;12.13;;;4.95;;
42864;SDS011;28511;42.680;23.252;2022-07-23T14:50:20;11.27;;;4.80;;
42864;SDS011;28511;42.680;23.252;2022-07-23T14:52:46;9.20;;;4.47;;
42864;SDS011;28511;42.680;23.252;2022-07-23T14:55:13;13.98;;;5.13;;
42864;SDS011;28511;42.680;23.252;2022-07-23T14:57:39;12.77;;;5.85;;
42864;SDS011;28511;42.680;23.252;2022-07-23T15:00:05;14.80;;;5.18;;
42864;SDS011;28511;42.680;23.252;2022-07-23T15:02:32;13.50;;;5.72;;
42864;SDS011;28511;42.680;23.252;2022-07-23T15:04:57;12.25;;;5.05;;
42864;SDS011;28511;42.680;23.252;2022-07-23T15:07:26;13.23;;;5.30;;
42864;SDS011;28511;42.680;23.252;2022-07-23T15:09:52;13.63;;;6.03;;
42864;SDS011;28511;42.680;23.252;2022-07-23T15:12:17;20.10;;;6.78;;
42864;SDS011;28511;42.680;23.252;2022-07-23T15:14:43;13.43;;;5.47;;
42864;SDS011;28511;42.680;23.252;2022-07-23T15:17:09;15.80;;;5.47;;
42864;SDS011;28511;42.680;23.252;2022-07-23T15:19:37;13.10;;;5.68;;
42864;SDS011;28511;42.680;23.252;2022-07-23T15:22:02;15.65;;;5.90;;
42864;SDS011;28511;42.680;23.252;2022-07-23T15:24:29;12.07;;;6.30;;
42864;SDS011;28511;42.680;23.252;2022-07-23T15:26:55;11.90;;;5.35;;
42864;SDS011;28511;42.680;23.252;2022-07-23T15:29:21;12.80;;;4.78;;
42864;SDS011;28511;42.680;23.252;2022-07-23T15:31:47;12.30;;;5.40;;
42864;SDS011;28511;42.680;23.252;2022-07-23T15:34:13;10.27;;;4.55;;